Time;durP1;ratioP1;P1;durP2;ratioP2;P2;SDS_P1;SDS_P2;PMS_P1;PMS_P2;Temp;Humidity;BMP_temperature;BMP_pressure;BME280_temperature;BME280_humidity;BME280_pressure;Samples;Min_cycle;Max_cycle;Signal;HPM_P1;HPM_P2
2022/03/15 00:01:51;;;;;;;70.28;33.45;;;;;;;0.71;65.92;102297.34;4948648;28;20142;-51
2022/03/15 00:04:19;;;;;;;68.78;33.88;;;;;;;0.71;66.16;102299.00;4949231;28;20051;-49
2022/03/15 00:06:46;;;;;;;69.97;31.25;;;;;;;0.69;66.48;102300.59;4948158;28;20055;-51
2022/03/15 00:09:12;;;;;;;75.85;34.03;;;;;;;0.67;66.56;102285.19;4949409;28;20066;-48
2022/03/15 00:11:39;;;;;;;73.20;31.75;;;;;;;0.67;66.34;102282.66;4950165;28;20059;-49
2022/03/15 00:14:06;;;;;;;59.08;30.23;;;;;;;0.68;66.47;102288.63;4948480;28;20055;-48
2022/03/15 00:16:32;;;;;;;64.07;31.60;;;;;;;0.68;66.57;102279.31;4949341;28;20063;-52
2022/03/15 00:19:00;;;;;;;68.50;35.17;;;;;;;0.67;66.51;102277.53;4949560;28;20759;-49
2022/03/15 00:21:28;;;;;;;66.38;31.40;;;;;;;0.63;67.13;102271.38;4947895;28;20066;-50
2022/03/15 00:23:54;;;;;;;68.25;33.83;;;;;;;0.62;67.11;102271.31;4947182;28;20078;-50
2022/03/15 00:26:21;;;;;;;67.88;33.25;;;;;;;0.61;67.02;102267.88;4949776;28;20543;-49
2022/03/15 00:28:48;;;;;;;66.55;31.98;;;;;;;0.61;66.78;102270.44;4948195;28;20082;-50
2022/03/15 00:31:14;;;;;;;65.78;32.55;;;;;;;0.62;66.85;102263.66;4950707;28;20492;-50
2022/03/15 00:33:43;;;;;;;56.35;27.48;;;;;;;0.61;66.81;102267.88;4950785;28;20050;-50
2022/03/15 00:36:09;;;;;;;61.35;29.65;;;;;;;0.60;66.33;102266.13;4951658;28;20473;-50
2022/03/15 00:38:37;;;;;;;51.90;27.75;;;;;;;0.60;66.57;102271.22;4955358;28;20078;-52
2022/03/15 00:41:04;;;;;;;60.75;29.27;;;;;;;0.57;66.62;102276.16;4964429;28;20953;-49
2022/03/15 00:43:30;;;;;;;57.10;28.00;;;;;;;0.52;66.44;102272.47;4966050;28;20050;-49
2022/03/15 00:45:57;;;;;;;56.53;28.35;;;;;;;0.47;66.49;102262.75;4968226;28;20050;-50
2022/03/15 00:48:23;;;;;;;92.07;44.67;;;;;;;0.43;66.97;102261.69;4965279;28;20134;-53
2022/03/15 00:50:50;;;;;;;76.93;35.70;;;;;;;0.44;67.13;102263.47;4965494;28;20050;-49
2022/03/15 00:53:16;;;;;;;85.47;40.50;;;;;;;0.43;67.41;102258.28;4963619;28;20050;-50
2022/03/15 00:55:44;;;;;;;83.47;41.60;;;;;;;0.43;67.41;102256.59;4963714;28;20057;-49
2022/03/15 00:58:11;;;;;;;63.95;32.67;;;;;;;0.43;67.46;102254.06;4964302;28;20070;-50
2022/03/15 01:00:38;;;;;;;59.00;30.45;;;;;;;0.45;67.38;102257.56;4964276;28;20459;-49
2022/03/15 01:03:04;;;;;;;54.97;27.20;;;;;;;0.47;67.41;102257.66;4966107;28;20672;-48
2022/03/15 01:05:32;;;;;;;56.83;29.42;;;;;;;0.42;67.09;102253.97;4964596;28;20042;-50
2022/03/15 01:07:58;;;;;;;58.30;28.67;;;;;;;0.37;67.25;102250.28;4964232;28;20401;-51
2022/03/15 01:10:25;;;;;;;58.00;28.20;;;;;;;0.29;67.10;102250.72;4963071;28;20073;-49
2022/03/15 01:12:53;;;;;;;54.88;29.25;;;;;;;0.27;67.18;102246.31;4963556;28;20476;-48
2022/03/15 01:15:20;;;;;;;52.47;27.98;;;;;;;0.22;66.71;102242.63;4963463;28;20142;-50
2022/03/15 01:17:46;;;;;;;61.70;29.20;;;;;;;0.16;67.03;102244.84;4963568;28;20103;-53
2022/03/15 01:20:13;;;;;;;59.78;29.05;;;;;;;0.15;67.31;102237.97;4963514;28;20499;-52
2022/03/15 01:22:39;;;;;;;157.68;50.22;;;;;;;0.13;67.68;102239.56;4964557;28;20055;-50
2022/03/15 01:25:07;;;;;;;97.63;38.55;;;;;;;0.12;67.67;102232.69;4964406;28;20042;-49
2022/03/15 01:27:34;;;;;;;93.72;36.95;;;;;;;0.11;67.74;102236.03;4964243;28;20046;-50
2022/03/15 01:30:02;;;;;;;71.25;32.70;;;;;;;0.06;67.51;102232.34;4964187;28;20141;-49
2022/03/15 01:32:28;;;;;;;77.63;34.63;;;;;;;0.03;67.49;102227.06;4965008;28;20050;-49
2022/03/15 01:34:54;;;;;;;70.03;32.90;;;;;;;-0.05;67.63;102224.94;4963687;28;20139;-48
2022/03/15 01:37:21;;;;;;;68.60;33.30;;;;;;;-0.09;67.88;102228.09;4964086;28;20519;-49
2022/03/15 01:39:47;;;;;;;66.03;33.55;;;;;;;-0.12;67.96;102227.91;4950719;28;20059;-50
2022/03/15 01:42:14;;;;;;;59.75;30.65;;;;;;;-0.14;68.25;102219.31;4944028;28;20421;-50
2022/03/15 01:44:46;;;;;;;62.55;32.75;;;;;;;-0.15;68.04;102220.09;4943343;28;20051;-51
2022/03/15 01:47:14;;;;;;;68.50;32.45;;;;;;;-0.15;68.09;102224.31;4943505;28;20058;-51
2022/03/15 01:49:40;;;;;;;78.53;33.95;;;;;;;-0.15;68.39;102232.84;4943117;28;20060;-48
2022/03/15 01:52:10;;;;;;;70.38;32.30;;;;;;;-0.13;68.26;102231.25;4943146;28;20054;-51
2022/03/15 01:54:37;;;;;;;75.38;34.17;;;;;;;-0.15;68.12;102232.84;4943361;28;20047;-51
2022/03/15 01:57:07;;;;;;;94.20;42.45;;;;;;;-0.16;68.57;102243.81;4943172;28;20066;-48
2022/03/15 01:59:34;;;;;;;171.25;67.50;;;;;;;-0.17;68.74;102242.06;4944797;28;20044;-52
2022/03/15 02:02:01;;;;;;;156.65;60.22;;;;;;;-0.18;68.87;102226.69;4942561;28;20444;-50
2022/03/15 02:04:29;;;;;;;143.77;54.35;;;;;;;-0.18;69.23;102235.22;4942524;28;20061;-49
2022/03/15 02:07:02;;;;;;;89.55;43.67;;;;;;;-0.20;69.07;102236.78;4943253;28;20413;-49
2022/03/15 02:09:28;;;;;;;119.88;44.40;;;;;;;-0.21;68.91;102237.56;4943168;28;20399;-51
2022/03/15 02:11:55;;;;;;;103.88;43.65;;;;;;;-0.21;68.82;102229.94;4942307;28;20048;-49
2022/03/15 02:14:21;;;;;;;104.63;44.95;;;;;;;-0.23;68.83;102228.06;4943306;28;20078;-53
2022/03/15 02:16:48;;;;;;;84.20;36.85;;;;;;;-0.28;68.88;102222.72;4942725;28;21599;-51
2022/03/15 02:19:15;;;;;;;73.15;36.42;;;;;;;-0.33;68.82;102219.00;4942736;28;20062;-50
2022/03/15 02:21:43;;;;;;;84.20;36.08;;;;;;;-0.37;68.67;102212.88;4942626;28;20563;-48
2022/03/15 02:24:10;;;;;;;70.97;34.72;;;;;;;-0.36;69.16;102216.28;4942005;28;20060;-49
2022/03/15 02:26:37;;;;;;;68.85;31.75;;;;;;;-0.38;69.09;102205.13;4943069;28;20142;-49
2022/03/15 02:29:03;;;;;;;80.75;36.85;;;;;;;-0.39;69.55;102211.00;4941657;28;21035;-49
2022/03/15 02:31:30;;;;;;;91.38;40.35;;;;;;;-0.45;69.23;102214.06;4944590;28;20566;-49
2022/03/15 02:33:56;;;;;;;79.03;36.42;;;;;;;-0.45;69.37;102213.19;4942080;28;20055;-50
2022/03/15 02:36:22;;;;;;;74.18;34.67;;;;;;;-0.43;69.90;102221.81;4942008;28;20055;-50
2022/03/15 02:38:50;;;;;;;77.75;36.95;;;;;;;-0.43;69.91;102219.25;4948116;28;20058;-50
2022/03/15 02:41:17;;;;;;;103.95;47.30;;;;;;;-0.43;69.35;102203.97;4962067;28;20059;-50
2022/03/15 02:43:45;;;;;;;101.55;47.25;;;;;;;-0.45;70.08;102210.66;4962089;28;20411;-49
2022/03/15 02:46:12;;;;;;;92.93;43.03;;;;;;;-0.44;70.34;102212.41;4961610;28;20059;-49
2022/03/15 02:48:38;;;;;;;99.57;43.88;;;;;;;-0.40;70.79;102216.91;4962476;28;20439;-54
2022/03/15 02:51:08;;;;;;;190.38;68.35;;;;;;;-0.39;70.78;102221.19;4962789;28;20714;-50
2022/03/15 02:53:34;;;;;;;117.20;51.58;;;;;;;-0.35;71.05;102223.16;4961602;28;20039;-51
2022/03/15 02:56:02;;;;;;;108.90;48.83;;;;;;;-0.31;70.71;102225.09;4962994;28;20058;-50
2022/03/15 02:58:28;;;;;;;113.75;48.05;;;;;;;-0.28;71.11;102224.38;4961651;28;20054;-51
2022/03/15 03:00:55;;;;;;;73.40;35.20;;;;;;;-0.25;70.91;102217.78;4961519;28;20057;-52
2022/03/15 03:03:22;;;;;;;73.70;34.40;;;;;;;-0.22;70.64;102219.66;4962075;28;20050;-51
2022/03/15 03:05:49;;;;;;;64.05;30.30;;;;;;;-0.21;70.64;102217.19;4962704;28;20065;-51
2022/03/15 03:08:16;;;;;;;65.25;29.92;;;;;;;-0.18;70.66;102227.56;4961648;28;21606;-50
2022/03/15 03:10:42;;;;;;;58.53;28.55;;;;;;;-0.17;70.67;102230.97;4962752;28;20054;-49
2022/03/15 03:13:11;;;;;;;65.53;32.55;;;;;;;-0.19;70.60;102230.91;4961223;28;20054;-52
2022/03/15 03:15:37;;;;;;;64.95;33.00;;;;;;;-0.19;70.29;102227.47;4961884;28;20047;-52
2022/03/15 03:18:04;;;;;;;77.63;34.55;;;;;;;-0.21;70.38;102227.38;4961958;28;20051;-49
2022/03/15 03:20:31;;;;;;;71.53;36.10;;;;;;;-0.20;70.82;102218.94;4962981;28;20057;-49
2022/03/15 03:22:57;;;;;;;92.22;43.53;;;;;;;-0.20;70.89;102236.78;4962277;28;20436;-53
2022/03/15 03:25:30;;;;;;;79.30;36.83;;;;;;;-0.20;70.95;102231.69;4961857;28;22072;-49
2022/03/15 03:27:57;;;;;;;88.15;40.03;;;;;;;-0.21;70.42;102222.28;4961905;28;20054;-51
2022/03/15 03:30:26;;;;;;;95.47;40.88;;;;;;;-0.20;71.26;102215.50;4961817;28;20042;-49
2022/03/15 03:32:53;;;;;;;81.55;36.25;;;;;;;-0.22;71.50;102223.06;4962308;28;20043;-51
2022/03/15 03:35:19;;;;;;;95.78;43.35;;;;;;;-0.22;71.57;102225.63;4960374;28;20058;-50
2022/03/15 03:37:46;;;;;;;85.15;38.20;;;;;;;-0.24;71.62;102222.09;4961845;28;20050;-54
2022/03/15 03:40:12;;;;;;;66.80;31.38;;;;;;;-0.23;71.99;102228.06;4961652;28;20069;-49
2022/03/15 03:42:41;;;;;;;69.38;32.63;;;;;;;-0.23;71.99;102218.75;4962584;28;20047;-49
2022/03/15 03:45:08;;;;;;;73.90;33.67;;;;;;;-0.22;72.09;102215.44;4962884;28;20401;-52
2022/03/15 03:47:35;;;;;;;63.78;32.63;;;;;;;-0.21;72.12;102212.09;4962655;28;20456;-49
2022/03/15 03:50:04;;;;;;;77.07;35.38;;;;;;;-0.19;72.22;102213.06;4962725;28;20054;-53
2022/03/15 03:52:31;;;;;;;63.33;30.58;;;;;;;-0.19;72.45;102220.69;4962815;28;20506;-49
2022/03/15 03:54:57;;;;;;;61.17;30.65;;;;;;;-0.20;72.14;102224.03;4960995;28;20069;-50
2022/03/15 03:57:24;;;;;;;58.92;29.23;;;;;;;-0.17;71.84;102211.47;4962039;28;20495;-50
2022/03/15 03:59:50;;;;;;;55.22;28.25;;;;;;;-0.14;72.01;102204.00;4962040;28;20455;-49
2022/03/15 04:02:17;;;;;;;56.58;30.02;;;;;;;-0.15;71.79;102202.25;4961655;28;20054;-52
2022/03/15 04:04:45;;;;;;;57.95;29.20;;;;;;;-0.17;71.29;102202.94;4961199;28;20054;-49
2022/03/15 04:07:11;;;;;;;60.65;29.85;;;;;;;-0.20;71.32;102203.66;4961924;28;20058;-49
2022/03/15 04:09:39;;;;;;;55.33;28.23;;;;;;;-0.20;72.02;102210.41;4961640;28;20050;-51
2022/03/15 04:12:06;;;;;;;60.17;30.02;;;;;;;-0.21;71.69;102190.81;4961812;28;20141;-50
2022/03/15 04:14:34;;;;;;;55.47;29.48;;;;;;;-0.22;71.15;102195.03;4965702;28;20488;-49
2022/03/15 04:17:01;;;;;;;52.75;28.67;;;;;;;-0.24;71.46;102196.63;4966229;28;20058;-49
2022/03/15 04:19:27;;;;;;;80.32;35.72;;;;;;;-0.29;70.93;102198.03;4965773;28;20058;-52
2022/03/15 04:21:55;;;;;;;66.13;31.90;;;;;;;-0.37;71.50;102196.69;4966413;28;20077;-50
2022/03/15 04:24:21;;;;;;;62.95;30.05;;;;;;;-0.40;71.11;102188.88;4966019;28;20499;-51
2022/03/15 04:26:48;;;;;;;59.53;29.10;;;;;;;-0.45;71.09;102185.19;4965369;28;20053;-48
2022/03/15 04:29:14;;;;;;;64.97;32.90;;;;;;;-0.50;71.21;102181.47;4964868;28;20173;-51
2022/03/15 04:31:41;;;;;;;62.42;31.23;;;;;;;-0.57;71.16;102184.41;4965316;28;20464;-49
2022/03/15 04:34:07;;;;;;;69.10;30.67;;;;;;;-0.60;70.96;102191.88;4965054;28;20058;-49
2022/03/15 04:36:36;;;;;;;64.57;31.50;;;;;;;-0.66;71.12;102180.53;4964910;28;20141;-51
2022/03/15 04:39:04;;;;;;;69.15;31.92;;;;;;;-0.70;71.13;102183.69;4960757;28;20110;-54
2022/03/15 04:41:30;;;;;;;68.65;32.10;;;;;;;-0.77;71.15;102194.28;4953523;28;21038;-48
2022/03/15 04:43:57;;;;;;;69.63;33.17;;;;;;;-0.82;71.71;102195.69;4952918;28;20059;-51
2022/03/15 04:46:24;;;;;;;71.32;34.28;;;;;;;-0.88;71.80;102190.22;4952407;28;20090;-51
2022/03/15 04:48:51;;;;;;;66.53;30.88;;;;;;;-0.89;72.26;102185.94;4951719;28;20057;-50
2022/03/15 04:51:17;;;;;;;61.10;29.45;;;;;;;-0.88;72.70;102190.22;4951886;28;20555;-50
2022/03/15 04:53:43;;;;;;;98.25;48.50;;;;;;;-0.88;72.88;102186.81;4952548;28;20559;-50
2022/03/15 04:56:11;;;;;;;79.35;39.28;;;;;;;-0.88;73.11;102182.59;4952279;28;20495;-52
2022/03/15 04:58:38;;;;;;;71.05;34.22;;;;;;;-0.88;73.55;102182.59;4951957;28;20914;-52
2022/03/15 05:01:05;;;;;;;69.15;32.80;;;;;;;-0.87;73.64;102184.34;4952753;28;20058;-51
2022/03/15 05:03:33;;;;;;;73.07;32.28;;;;;;;-0.85;73.50;102180.22;4953269;28;20058;-50
2022/03/15 05:06:00;;;;;;;64.05;31.02;;;;;;;-0.85;73.39;102185.31;4951181;28;20051;-51
2022/03/15 05:08:26;;;;;;;63.75;31.38;;;;;;;-0.86;73.04;102181.00;4953574;28;20054;-51
2022/03/15 05:11:07;;;;;;;65.25;30.63;;;;;;;-0.89;72.83;102179.94;4953117;28;20050;-53
2022/03/15 05:13:37;;;;;;;68.95;32.13;;;;;;;-0.91;72.96;102186.63;4952894;28;20165;-49
2022/03/15 05:16:04;;;;;;;71.35;33.95;;;;;;;-0.96;72.39;102194.84;4952419;28;20769;-48
2022/03/15 05:18:31;;;;;;;76.03;34.25;;;;;;;-1.00;72.85;102181.84;4952110;28;20055;-49
2022/03/15 05:20:57;;;;;;;59.40;32.13;;;;;;;-1.01;73.21;102185.19;4952943;28;20674;-50
2022/03/15 05:23:24;;;;;;;69.88;32.50;;;;;;;-1.02;72.86;102189.38;4951661;28;20066;-52
2022/03/15 05:25:50;;;;;;;65.68;33.42;;;;;;;-1.01;73.28;102195.38;4951454;28;20061;-49
2022/03/15 05:28:16;;;;;;;64.65;30.58;;;;;;;-0.99;73.50;102198.88;4952527;28;20054;-50
2022/03/15 05:30:44;;;;;;;68.25;32.72;;;;;;;-0.94;73.64;102194.94;4952009;28;20051;-49
2022/03/15 05:33:11;;;;;;;66.85;31.67;;;;;;;-0.91;73.61;102197.69;4951267;28;20082;-51
2022/03/15 05:35:37;;;;;;;71.03;34.53;;;;;;;-0.90;73.65;102199.44;4951764;28;20059;-48
2022/03/15 05:38:04;;;;;;;64.38;32.40;;;;;;;-0.85;73.42;102192.97;4953125;28;20050;-50
2022/03/15 05:40:30;;;;;;;79.00;34.40;;;;;;;-0.80;74.27;102198.31;4962421;28;20050;-49
2022/03/15 05:42:58;;;;;;;71.40;34.10;;;;;;;-0.73;74.04;102198.78;4963906;28;20053;-52
2022/03/15 05:45:24;;;;;;;71.43;33.95;;;;;;;-0.68;74.10;102191.44;4964619;28;20124;-50
2022/03/15 05:47:52;;;;;;;84.50;39.80;;;;;;;-0.63;74.20;102196.00;4964176;28;20447;-50
2022/03/15 05:50:19;;;;;;;68.72;33.80;;;;;;;-0.52;74.20;102194.13;4963196;28;20122;-49
2022/03/15 05:52:45;;;;;;;74.18;33.40;;;;;;;-0.41;74.17;102192.22;4964366;28;21660;-50
2022/03/15 05:55:12;;;;;;;79.63;36.30;;;;;;;-0.34;74.35;102195.22;4965364;28;20050;-50
2022/03/15 05:57:39;;;;;;;68.15;32.53;;;;;;;-0.23;74.04;102190.72;4965279;28;20046;-47
2022/03/15 06:00:08;;;;;;;68.68;34.40;;;;;;;-0.14;74.01;102178.53;4964460;28;20066;-48
2022/03/15 06:02:34;;;;;;;61.05;29.33;;;;;;;-0.02;74.05;102176.66;4963844;28;20057;-53
2022/03/15 06:05:03;;;;;;;79.30;35.65;;;;;;;0.12;74.15;102176.59;4963781;28;20065;-50
2022/03/15 06:07:29;;;;;;;105.22;45.10;;;;;;;0.26;73.93;102175.69;4965509;28;20125;-49
2022/03/15 06:09:57;;;;;;;149.95;67.70;;;;;;;0.45;73.91;102186.13;4963144;28;20055;-49
2022/03/15 06:12:25;;;;;;;76.53;36.55;;;;;;;0.66;73.78;102195.78;4962688;28;20050;-49
2022/03/15 06:14:52;;;;;;;80.70;35.75;;;;;;;0.84;73.35;102189.13;4966792;28;20518;-50
2022/03/15 06:17:18;;;;;;;70.13;34.78;;;;;;;1.04;73.03;102183.44;4965487;28;20042;-49
2022/03/15 06:19:45;;;;;;;72.85;33.75;;;;;;;1.23;72.84;102186.16;4963999;28;20058;-51
2022/03/15 06:22:13;;;;;;;58.85;31.35;;;;;;;1.43;72.70;102174.41;4965269;28;20062;-54
2022/03/15 06:24:39;;;;;;;71.43;34.65;;;;;;;1.63;72.37;102177.13;4963607;28;20061;-50
2022/03/15 06:27:06;;;;;;;71.40;34.92;;;;;;;1.82;72.15;102175.56;4962856;28;20050;-48
2022/03/15 06:29:32;;;;;;;74.53;36.80;;;;;;;2.01;72.49;102177.34;4964805;28;20715;-48
2022/03/15 06:31:59;;;;;;;96.60;43.35;;;;;;;2.19;71.26;102177.38;4965777;28;20050;-51
2022/03/15 06:34:25;;;;;;;94.35;43.15;;;;;;;2.35;71.25;102179.88;4961748;28;20066;-50
2022/03/15 06:36:52;;;;;;;99.97;47.60;;;;;;;2.56;71.01;102174.00;4962855;28;20049;-49
2022/03/15 06:39:20;;;;;;;98.22;46.25;;;;;;;2.77;70.55;102175.91;4963377;28;20058;-49
2022/03/15 06:41:46;;;;;;;99.82;45.63;;;;;;;2.99;70.60;102170.06;4965200;28;20050;-50
2022/03/15 06:44:13;;;;;;;90.90;40.08;;;;;;;3.22;69.54;102160.88;4966831;28;20069;-51
2022/03/15 06:46:40;;;;;;;82.90;40.67;;;;;;;3.49;69.01;102161.19;4963600;28;20046;-50
2022/03/15 06:49:06;;;;;;;71.32;37.53;;;;;;;3.75;68.04;102165.75;4966250;28;20423;-51
2022/03/15 06:51:32;;;;;;;61.38;32.78;;;;;;;4.00;67.76;102161.63;4965906;28;20043;-53
2022/03/15 06:53:59;;;;;;;73.45;36.72;;;;;;;4.23;66.83;102165.16;4963129;28;20050;-52
2022/03/15 06:56:27;;;;;;;58.97;32.47;;;;;;;4.49;65.79;102174.75;4964010;28;20663;-51
2022/03/15 06:58:53;;;;;;;73.90;39.65;;;;;;;4.77;64.79;102174.16;4963532;28;20058;-49
2022/03/15 07:01:20;;;;;;;75.40;39.78;;;;;;;5.02;64.08;102171.66;4961462;28;20046;-51
2022/03/15 07:03:46;;;;;;;62.85;35.42;;;;;;;5.28;63.18;102176.91;4963433;28;20054;-49
2022/03/15 07:06:13;;;;;;;72.13;35.95;;;;;;;5.50;61.82;102173.38;4962801;28;20133;-48
2022/03/15 07:08:39;;;;;;;55.65;33.20;;;;;;;5.69;61.68;102176.66;4957293;28;20408;-48
2022/03/15 07:11:06;;;;;;;65.55;37.95;;;;;;;5.90;60.61;102175.69;4955164;28;20194;-46
2022/03/15 07:13:33;;;;;;;80.22;43.15;;;;;;;6.09;59.42;102185.75;4959629;28;20046;-46
2022/03/15 07:16:00;;;;;;;98.72;48.65;;;;;;;6.17;59.17;102179.16;4961713;28;20043;-46
2022/03/15 07:18:26;;;;;;;79.03;42.03;;;;;;;6.27;58.61;102176.09;4960309;28;20047;-47
2022/03/15 07:20:53;;;;;;;85.38;43.95;;;;;;;6.40;57.95;102179.91;4961391;28;20726;-56
2022/03/15 07:23:19;;;;;;;77.93;41.65;;;;;;;6.47;57.13;102180.97;4961394;28;20061;-56
2022/03/15 07:25:45;;;;;;;74.50;38.35;;;;;;;6.55;57.11;102174.38;4964959;28;20046;-56
2022/03/15 07:28:12;;;;;;;77.70;43.15;;;;;;;6.69;56.81;102183.38;4962600;28;20054;-48
2022/03/15 07:30:40;;;;;;;84.57;43.63;;;;;;;6.86;56.60;102187.38;4960702;28;20416;-48
2022/03/15 07:33:06;;;;;;;92.75;43.60;;;;;;;6.97;56.03;102180.81;4961436;28;20047;-50
2022/03/15 07:35:32;;;;;;;89.30;44.72;;;;;;;7.14;55.63;102176.16;4964239;28;20069;-60
2022/03/15 07:37:59;;;;;;;83.03;42.90;;;;;;;7.34;55.70;102181.88;4960912;28;20053;-55
2022/03/15 07:40:27;;;;;;;71.63;41.20;;;;;;;7.56;55.21;102175.59;4959486;28;21775;-47
2022/03/15 07:42:54;;;;;;;75.47;42.97;;;;;;;7.80;54.40;102172.78;4962982;28;20480;-47
2022/03/15 07:45:21;;;;;;;68.88;39.88;;;;;;;7.93;54.44;102177.44;4957937;28;20082;-47
2022/03/15 07:47:49;;;;;;;75.68;43.38;;;;;;;8.06;53.93;102184.66;4961688;28;20087;-47
2022/03/15 07:50:16;;;;;;;80.75;44.05;;;;;;;8.11;52.89;102172.72;4964449;28;20055;-49
2022/03/15 07:52:42;;;;;;;72.20;41.22;;;;;;;8.25;53.34;102173.06;4961853;28;20235;-51
2022/03/15 07:55:09;;;;;;;62.65;37.80;;;;;;;8.48;53.42;102176.25;4964321;28;20153;-50
2022/03/15 07:57:36;;;;;;;67.03;40.70;;;;;;;8.72;52.69;102181.97;4961878;28;20189;-52
2022/03/15 08:00:04;;;;;;;77.60;43.80;;;;;;;8.83;51.57;102195.13;4961688;28;20482;-50
2022/03/15 08:02:30;;;;;;;67.03;40.78;;;;;;;8.94;51.34;102197.97;4961714;28;20067;-52
2022/03/15 08:04:58;;;;;;;75.05;44.20;;;;;;;9.09;51.10;102193.09;4961522;28;20050;-53
2022/03/15 08:07:25;;;;;;;77.05;45.38;;;;;;;9.25;51.26;102202.94;4961641;28;20484;-48
2022/03/15 08:09:51;;;;;;;70.25;42.92;;;;;;;9.36;49.96;102188.47;4965385;28;20508;-47
2022/03/15 08:12:18;;;;;;;77.72;44.78;;;;;;;9.51;49.07;102192.25;4968295;28;20051;-45
2022/03/15 08:14:47;;;;;;;72.85;43.25;;;;;;;9.58;48.92;102199.28;4962820;28;20134;-47
2022/03/15 08:17:13;;;;;;;80.50;48.13;;;;;;;9.70;48.66;102209.84;4963990;28;20094;-47
2022/03/15 08:19:40;;;;;;;71.60;44.85;;;;;;;9.84;48.07;102208.38;4962835;28;20054;-45
2022/03/15 08:22:08;;;;;;;72.78;42.25;;;;;;;9.92;47.90;102206.84;4966036;28;20046;-45
2022/03/15 08:24:34;;;;;;;69.47;44.10;;;;;;;10.15;47.12;102203.75;4962474;28;20058;-47
2022/03/15 08:27:00;;;;;;;86.72;49.22;;;;;;;10.32;46.39;102218.75;4961394;28;20046;-48
2022/03/15 08:29:29;;;;;;;76.43;48.05;;;;;;;10.33;46.58;102219.63;4963060;28;20042;-50
2022/03/15 08:31:55;;;;;;;70.93;43.67;;;;;;;10.30;46.12;102204.03;4964730;28;20057;-49
2022/03/15 08:34:21;;;;;;;69.07;40.55;;;;;;;10.51;46.36;102204.41;4961775;28;20062;-45
2022/03/15 08:36:48;;;;;;;66.55;42.20;;;;;;;10.70;45.19;102211.59;4963889;28;20078;-48
2022/03/15 08:39:16;;;;;;;72.38;44.88;;;;;;;10.90;44.27;102223.97;4962900;28;20059;-51
2022/03/15 08:41:45;;;;;;;82.57;49.22;;;;;;;11.00;43.98;102223.28;4964784;28;20739;-48
2022/03/15 08:44:11;;;;;;;55.75;38.08;;;;;;;11.14;43.95;102229.50;4963478;28;20440;-58
2022/03/15 08:46:38;;;;;;;65.25;39.90;;;;;;;11.31;43.12;102221.94;4960873;28;20057;-49
2022/03/15 08:49:04;;;;;;;62.15;38.47;;;;;;;11.37;43.35;102215.09;4960849;28;20054;-49
2022/03/15 08:51:31;;;;;;;66.55;40.63;;;;;;;11.61;42.77;102211.91;4961707;28;20050;-49
2022/03/15 08:53:58;;;;;;;57.15;37.78;;;;;;;11.84;42.52;102203.50;4962203;28;20086;-52
2022/03/15 08:56:26;;;;;;;79.97;47.80;;;;;;;12.09;41.87;102207.22;4962505;28;20806;-54
2022/03/15 08:58:53;;;;;;;74.50;46.92;;;;;;;12.26;41.33;102208.22;4961671;28;20046;-54
2022/03/15 09:01:20;;;;;;;68.55;39.75;;;;;;;12.40;40.95;102209.22;4959398;28;20455;-51
2022/03/15 09:03:46;;;;;;;57.88;38.10;;;;;;;12.51;40.73;102210.19;4959259;28;20054;-50
2022/03/15 09:06:12;;;;;;;68.20;39.33;;;;;;;12.66;40.35;102203.34;4961980;28;20070;-49
2022/03/15 09:08:39;;;;;;;70.22;43.03;;;;;;;12.76;39.82;102205.13;4961482;28;20066;-53
2022/03/15 09:11:05;;;;;;;66.88;40.88;;;;;;;12.71;39.67;102206.84;4961521;28;20546;-45
2022/03/15 09:13:33;;;;;;;63.72;38.28;;;;;;;12.75;39.84;102198.19;4961582;28;20059;-46
2022/03/15 09:16:00;;;;;;;67.00;40.08;;;;;;;12.77;39.39;102201.66;4960788;28;20060;-50
2022/03/15 09:18:26;;;;;;;65.97;39.28;;;;;;;12.66;39.60;102200.72;4959353;28;20061;-47
2022/03/15 09:20:53;;;;;;;57.95;37.08;;;;;;;12.63;39.66;102199.84;4959594;28;20058;-48
2022/03/15 09:23:20;;;;;;;54.28;34.40;;;;;;;12.68;39.52;102201.63;4959533;28;20066;-49
2022/03/15 09:25:47;;;;;;;69.75;41.45;;;;;;;12.79;39.53;102199.94;4960249;28;20515;-46
2022/03/15 09:28:14;;;;;;;56.67;37.72;;;;;;;12.91;39.43;102197.41;4960347;28;20047;-46
2022/03/15 09:30:41;;;;;;;58.20;39.03;;;;;;;12.97;39.26;102189.63;4959388;28;20058;-51
2022/03/15 09:33:08;;;;;;;55.08;35.88;;;;;;;13.00;39.27;102188.75;4960965;28;20501;-47
2022/03/15 09:35:35;;;;;;;58.63;38.33;;;;;;;13.06;39.21;102184.50;4958928;28;20499;-50
2022/03/15 09:38:03;;;;;;;54.70;36.75;;;;;;;13.20;39.12;102177.63;4963225;28;20717;-52
2022/03/15 09:40:31;;;;;;;60.15;37.10;;;;;;;13.33;38.78;102177.66;4958786;28;20055;-50
2022/03/15 09:43:00;;;;;;;58.15;35.80;;;;;;;13.48;38.42;102177.69;4961616;28;20051;-51
2022/03/15 09:45:30;;;;;;;59.72;37.55;;;;;;;13.59;37.99;102168.22;4959534;28;20059;-47
2022/03/15 09:48:01;;;;;;;51.63;32.92;;;;;;;13.77;37.85;102176.03;4959889;28;20444;-48
2022/03/15 09:50:28;;;;;;;47.03;32.67;;;;;;;13.95;37.02;102164.75;4958687;28;20492;-47
2022/03/15 09:52:57;;;;;;;56.95;36.35;;;;;;;14.08;36.78;102166.53;4959519;28;20051;-47
2022/03/15 09:55:25;;;;;;;69.50;37.97;;;;;;;14.13;36.44;102163.91;4963042;28;20108;-55
2022/03/15 09:57:52;;;;;;;53.97;34.17;;;;;;;14.18;36.62;102167.38;4960025;28;20057;-47
2022/03/15 10:00:20;;;;;;;60.00;32.75;;;;;;;14.29;36.30;102168.25;4958959;28;20067;-54
2022/03/15 10:02:47;;;;;;;49.20;33.95;;;;;;;14.37;36.21;102169.09;4962677;28;20061;-52
2022/03/15 10:05:15;;;;;;;52.30;33.15;;;;;;;14.46;35.87;102163.91;4962320;28;20060;-51
2022/03/15 10:07:42;;;;;;;53.67;35.38;;;;;;;14.59;35.79;102158.69;4959915;28;20039;-58
2022/03/15 10:10:11;;;;;;;73.68;42.45;;;;;;;14.64;36.07;102146.50;4958222;28;20511;-56
2022/03/15 10:12:37;;;;;;;91.47;57.90;;;;;;;14.69;35.67;102155.19;4957136;28;20062;-53
2022/03/15 10:15:16;;;;;;;59.40;37.22;;;;;;;14.79;35.29;102146.44;4959496;28;20077;-52
2022/03/15 10:17:47;;;;;;;55.05;35.58;;;;;;;14.90;35.40;102143.78;4959519;28;20046;-46
2022/03/15 10:20:18;;;;;;;60.38;38.25;;;;;;;15.00;35.20;102150.69;4960026;28;20058;-44
2022/03/15 10:22:53;;;;;;;53.15;34.28;;;;;;;15.11;34.05;102147.19;4966914;28;20109;-45
2022/03/15 10:25:21;;;;;;;50.05;33.38;;;;;;;15.17;34.02;102142.81;4960522;28;20077;-50
2022/03/15 10:27:52;;;;;;;47.92;32.22;;;;;;;15.23;33.78;102137.56;4959453;28;20552;-47
2022/03/15 10:30:19;;;;;;;48.85;32.30;;;;;;;15.23;33.78;102124.50;4959818;28;20086;-45
2022/03/15 10:32:46;;;;;;;46.65;31.80;;;;;;;15.25;33.72;102131.44;4959911;28;20101;-45
2022/03/15 10:35:14;;;;;;;46.15;31.05;;;;;;;15.26;33.88;102120.13;4958167;28;20057;-44
2022/03/15 10:37:42;;;;;;;46.25;29.15;;;;;;;15.35;33.95;102125.28;4958451;28;20065;-43
2022/03/15 10:40:09;;;;;;;39.90;25.65;;;;;;;15.47;33.56;102116.50;4957372;28;20182;-45
2022/03/15 10:42:40;;;;;;;41.58;25.50;;;;;;;15.59;33.00;102116.44;4957754;28;20526;-48
2022/03/15 10:45:16;;;;;;;42.60;25.20;;;;;;;15.74;32.32;102113.75;4957195;28;20051;-49
2022/03/15 10:47:49;;;;;;;37.10;22.25;;;;;;;15.87;30.98;102113.63;4957568;28;20070;-52
2022/03/15 10:50:16;;;;;;;33.92;20.08;;;;;;;15.90;30.85;102117.09;4959419;28;20149;-46
2022/03/15 10:52:45;;;;;;;39.58;21.02;;;;;;;15.95;30.68;102119.66;4959006;28;20148;-49
2022/03/15 10:55:15;;;;;;;25.55;19.17;;;;;;;16.00;30.56;102115.25;4958983;28;20573;-50
2022/03/15 10:57:47;;;;;;;31.85;19.10;;;;;;;16.08;29.87;102116.06;4960886;28;20055;-55
2022/03/15 11:00:15;;;;;;;25.15;18.48;;;;;;;16.14;29.63;102105.56;4959193;28;20054;-60
2022/03/15 11:02:42;;;;;;;28.33;18.98;;;;;;;16.16;29.88;102109.03;4963122;28;20082;-47
2022/03/15 11:05:09;;;;;;;32.17;21.13;;;;;;;16.17;29.67;102109.91;4961895;28;20539;-50
2022/03/15 11:07:39;;;;;;;30.63;20.42;;;;;;;16.15;30.01;102101.19;4958340;28;20104;-49
2022/03/15 11:10:14;;;;;;;24.63;17.80;;;;;;;16.14;30.03;102102.94;4958825;28;20042;-52
2022/03/15 11:12:57;;;;;;;28.95;18.95;;;;;;;16.19;29.72;102093.31;4960258;28;20449;-55